createdAt,value
2017-08-25T00:00:02.661Z,99.90
2017-08-25T00:02:34.877Z,99.90
2017-08-25T00:05:02.421Z,99.90
2017-08-25T00:07:29.950Z,99.90
2017-08-25T00:09:57.454Z,99.90
2017-08-25T00:12:25.113Z,99.90
2017-08-25T00:14:52.879Z,99.90
2017-08-25T00:17:21.582Z,99.90
2017-08-25T00:19:49.109Z,99.90
2017-08-25T00:22:16.669Z,99.90
2017-08-25T00:24:44.372Z,99.90
2017-08-25T00:27:11.885Z,99.90
2017-08-25T00:29:39.923Z,99.90
2017-08-25T00:32:07.545Z,99.90
2017-08-25T00:37:57.041Z,99.90
2017-08-25T00:40:24.624Z,99.90
2017-08-25T00:42:52.160Z,99.90
2017-08-25T00:45:19.865Z,99.90
2017-08-25T00:47:47.377Z,99.90
2017-08-25T00:50:15.011Z,99.90
2017-08-25T00:52:42.540Z,99.90
2017-08-25T00:55:10.056Z,99.90
2017-08-25T00:57:37.666Z,99.90
2017-08-25T01:00:05.239Z,99.90
2017-08-25T01:02:32.798Z,99.90
2017-08-25T01:05:00.391Z,99.90
2017-08-25T01:07:28.216Z,99.90
2017-08-25T01:09:55.726Z,99.90
2017-08-25T01:12:23.330Z,99.90
2017-08-25T01:14:51.012Z,99.90
2017-08-25T01:17:18.505Z,99.90
2017-08-25T01:19:46.027Z,99.90
2017-08-25T01:22:13.578Z,99.90
2017-08-25T01:24:41.083Z,99.90
2017-08-25T01:27:08.604Z,99.90
2017-08-25T01:29:36.122Z,99.90
2017-08-25T01:32:03.640Z,99.90
2017-08-25T01:34:31.133Z,99.90
2017-08-25T01:36:59.903Z,99.90
2017-08-25T01:39:27.406Z,99.90
2017-08-25T01:41:54.940Z,99.90
2017-08-25T01:44:22.460Z,99.90
2017-08-25T01:46:51.804Z,99.90
2017-08-25T01:49:19.330Z,99.90
2017-08-25T01:51:47.803Z,99.90
2017-08-25T01:54:15.341Z,99.90
2017-08-25T01:56:42.841Z,99.90
2017-08-25T01:59:11.002Z,99.90
2017-08-25T02:01:38.518Z,99.90
2017-08-25T02:04:06.221Z,99.90
2017-08-25T02:06:34.925Z,99.90
2017-08-25T02:09:02.815Z,99.90
2017-08-25T02:11:30.527Z,99.90
2017-08-25T02:13:58.142Z,99.90
2017-08-25T02:16:26.494Z,99.90
2017-08-25T02:18:56.561Z,99.90
2017-08-25T02:21:24.817Z,99.90
2017-08-25T02:23:52.949Z,99.90
2017-08-25T02:26:20.453Z,99.90
2017-08-25T02:28:49.432Z,99.90
2017-08-25T02:31:17.140Z,99.90
2017-08-25T02:33:44.745Z,99.90
2017-08-25T02:36:12.408Z,99.90
2017-08-25T02:38:40.009Z,99.90
2017-08-25T02:41:07.584Z,99.90
2017-08-25T02:43:35.147Z,99.90
2017-08-25T02:46:02.681Z,99.90
2017-08-25T02:48:30.235Z,99.90
2017-08-25T02:50:57.893Z,99.90
2017-08-25T02:53:25.474Z,99.90
2017-08-25T02:55:53.168Z,99.90
2017-08-25T02:58:20.811Z,99.90
2017-08-25T03:00:48.677Z,99.90
2017-08-25T03:03:16.227Z,99.90
2017-08-25T03:05:43.719Z,99.90
2017-08-25T03:08:11.448Z,99.90
2017-08-25T03:10:39.148Z,99.90
2017-08-25T03:13:06.669Z,99.90
2017-08-25T03:15:34.271Z,99.90
2017-08-25T03:18:01.825Z,99.90
2017-08-25T03:20:29.414Z,99.90
2017-08-25T03:22:56.942Z,99.90
2017-08-25T03:25:24.675Z,99.90
2017-08-25T03:27:52.366Z,99.90
2017-08-25T03:30:20.008Z,99.90
2017-08-25T03:32:47.565Z,99.90
2017-08-25T03:35:15.338Z,99.90
2017-08-25T03:37:42.862Z,99.90
2017-08-25T03:40:10.354Z,99.90
2017-08-25T03:42:37.880Z,99.90
2017-08-25T03:45:05.417Z,99.90
2017-08-25T03:47:32.923Z,99.90
2017-08-25T03:50:00.442Z,99.90
2017-08-25T03:52:27.966Z,99.90
2017-08-25T03:54:55.499Z,99.90
2017-08-25T03:57:22.985Z,99.90
2017-08-25T03:59:50.497Z,99.90
2017-08-25T04:02:18.021Z,99.90
2017-08-25T04:04:45.533Z,99.90
2017-08-25T04:07:13.038Z,99.90
2017-08-25T04:09:40.558Z,99.90
2017-08-25T04:12:08.074Z,99.90
2017-08-25T04:14:35.575Z,99.90
2017-08-25T04:17:03.061Z,99.90
2017-08-25T04:19:30.603Z,99.90
2017-08-25T04:21:58.111Z,99.90
2017-08-25T04:24:25.651Z,99.90
2017-08-25T04:26:53.144Z,99.90
2017-08-25T04:29:20.665Z,99.90
2017-08-25T04:31:48.150Z,99.90
2017-08-25T04:34:15.640Z,99.90
2017-08-25T04:36:43.170Z,99.70
2017-08-25T04:39:10.761Z,99.70
2017-08-25T04:41:38.265Z,99.20
2017-08-25T04:44:05.803Z,99.20
2017-08-25T04:46:33.292Z,99.50
2017-08-25T04:49:00.804Z,99.40
2017-08-25T04:51:28.288Z,99.40
2017-08-25T04:53:55.797Z,99.30
2017-08-25T04:56:23.396Z,99.30
2017-08-25T04:58:50.983Z,99.40
2017-08-25T05:01:18.512Z,99.30
2017-08-25T05:03:46.204Z,99.20
2017-08-25T05:06:13.758Z,99.60
2017-08-25T05:08:41.283Z,99.80
2017-08-25T05:11:08.849Z,99.20
2017-08-25T05:13:36.716Z,98.60
2017-08-25T05:16:04.230Z,98.70
2017-08-25T05:18:31.756Z,98.60
2017-08-25T05:20:59.515Z,98.20
2017-08-25T05:23:27.016Z,97.90
2017-08-25T05:25:54.653Z,97.90
2017-08-25T05:28:23.171Z,97.60
2017-08-25T05:30:50.686Z,97.80
2017-08-25T05:33:18.177Z,97.20
2017-08-25T05:35:45.670Z,96.90
2017-08-25T05:38:13.206Z,97.10
2017-08-25T05:40:40.719Z,97.10
2017-08-25T05:43:08.291Z,97.10
2017-08-25T05:45:35.874Z,96.20
2017-08-25T05:48:03.594Z,96.60
2017-08-25T05:50:31.114Z,96.60
2017-08-25T05:52:58.629Z,96.60
2017-08-25T05:55:26.219Z,96.60
2017-08-25T05:57:53.851Z,96.00
2017-08-25T06:00:21.388Z,95.80
2017-08-25T06:02:48.878Z,95.10
2017-08-25T06:05:16.398Z,94.60
2017-08-25T06:07:44.082Z,95.00
2017-08-25T06:10:11.581Z,94.40
2017-08-25T06:12:40.021Z,94.40
2017-08-25T06:15:07.697Z,94.00
2017-08-25T06:17:35.196Z,93.10
2017-08-25T06:20:02.809Z,93.70
2017-08-25T06:22:30.384Z,93.80
2017-08-25T06:24:57.877Z,92.70
2017-08-25T06:27:25.456Z,92.10
2017-08-25T06:29:52.960Z,92.50
2017-08-25T06:32:22.466Z,92.50
2017-08-25T06:34:52.141Z,92.80
2017-08-25T06:37:22.335Z,92.60
2017-08-25T06:39:51.851Z,92.20
2017-08-25T06:42:19.400Z,92.10
2017-08-25T06:44:46.924Z,91.90
2017-08-25T06:47:14.410Z,91.10
2017-08-25T06:49:42.116Z,91.00
2017-08-25T06:52:09.677Z,91.30
2017-08-25T06:54:37.194Z,91.20
2017-08-25T06:57:04.936Z,91.10
2017-08-25T06:59:32.574Z,91.20
2017-08-25T07:02:00.068Z,91.60
2017-08-25T07:04:27.598Z,92.20
2017-08-25T07:06:55.247Z,92.30
2017-08-25T07:09:22.811Z,92.50
2017-08-25T07:11:50.328Z,91.90
2017-08-25T07:14:17.848Z,91.20
2017-08-25T07:16:45.370Z,91.10
2017-08-25T07:19:12.955Z,91.30
2017-08-25T07:21:40.526Z,91.40
2017-08-25T07:24:08.203Z,90.10
2017-08-25T07:26:36.659Z,90.00
2017-08-25T07:29:04.158Z,89.70
2017-08-25T07:31:31.649Z,88.60
2017-08-25T07:33:59.180Z,88.20
2017-08-25T07:36:26.707Z,88.20
2017-08-25T07:38:54.210Z,86.40
2017-08-25T07:41:21.731Z,86.00
2017-08-25T07:43:49.254Z,86.00
2017-08-25T07:46:16.764Z,82.00
2017-08-25T07:48:44.262Z,78.20
2017-08-25T07:51:11.855Z,75.30
2017-08-25T07:53:39.360Z,77.50
2017-08-25T07:56:06.970Z,77.20
2017-08-25T07:58:34.553Z,77.40
2017-08-25T08:01:02.090Z,78.10
2017-08-25T08:03:29.649Z,78.10
2017-08-25T08:05:57.302Z,79.10
2017-08-25T08:08:24.830Z,74.00
2017-08-25T08:10:52.418Z,74.60
2017-08-25T08:13:19.934Z,75.60
2017-08-25T08:15:47.513Z,74.70
2017-08-25T08:18:15.118Z,75.30
2017-08-25T08:20:42.633Z,75.00
2017-08-25T08:23:10.145Z,73.90
2017-08-25T08:25:37.663Z,70.90
2017-08-25T08:28:05.174Z,71.00
2017-08-25T08:30:32.681Z,71.60
2017-08-25T08:33:00.204Z,71.60
2017-08-25T08:35:28.038Z,72.70
2017-08-25T08:37:55.546Z,71.90
2017-08-25T08:40:23.035Z,71.90
2017-08-25T08:42:50.546Z,71.80
2017-08-25T08:45:18.119Z,71.10
2017-08-25T08:47:45.627Z,70.50
2017-08-25T08:50:13.121Z,70.30
2017-08-25T08:52:40.619Z,69.80
2017-08-25T08:55:08.144Z,71.40
2017-08-25T08:57:35.638Z,72.40
2017-08-25T09:00:03.172Z,73.10
2017-08-25T09:02:30.685Z,74.40
2017-08-25T09:04:58.203Z,75.10
2017-08-25T09:07:25.710Z,75.80
2017-08-25T09:09:53.199Z,72.60
2017-08-25T09:12:20.722Z,72.00
2017-08-25T09:14:48.222Z,71.80
2017-08-25T09:17:15.718Z,69.70
2017-08-25T09:19:43.205Z,70.00
2017-08-25T09:22:10.685Z,72.80
2017-08-25T09:24:38.226Z,73.60
2017-08-25T09:27:05.727Z,73.10
2017-08-25T09:29:33.245Z,73.60
2017-08-25T09:32:00.768Z,73.70
2017-08-25T09:34:28.275Z,73.10
2017-08-25T09:36:55.763Z,72.20
2017-08-25T09:39:23.369Z,72.50
2017-08-25T09:41:50.870Z,74.00
2017-08-25T09:44:18.400Z,74.90
2017-08-25T09:46:45.928Z,75.60
2017-08-25T09:49:13.430Z,75.70
2017-08-25T09:51:40.971Z,75.70
2017-08-25T09:54:08.453Z,75.30
2017-08-25T09:56:35.946Z,75.30
2017-08-25T09:59:03.483Z,76.70
2017-08-25T10:01:31.117Z,76.50
2017-08-25T10:03:58.636Z,74.30
2017-08-25T10:06:26.255Z,74.60
2017-08-25T10:08:53.736Z,74.00
2017-08-25T10:11:21.244Z,74.30
2017-08-25T10:13:48.739Z,75.00
2017-08-25T10:16:16.259Z,74.30
2017-08-25T10:18:43.745Z,74.20
2017-08-25T10:21:11.242Z,74.80
2017-08-25T10:23:38.792Z,74.80
2017-08-25T10:26:06.621Z,74.70
2017-08-25T10:28:34.100Z,74.40
2017-08-25T10:31:01.620Z,75.30
2017-08-25T10:33:40.811Z,75.20
2017-08-25T10:36:20.017Z,75.90
2017-08-25T10:38:59.410Z,76.40
2017-08-25T10:41:38.696Z,78.10
2017-08-25T10:44:18.076Z,77.20
2017-08-25T10:46:45.680Z,76.30
2017-08-25T10:49:13.183Z,73.70
2017-08-25T10:51:40.711Z,73.20
2017-08-25T10:54:08.226Z,70.90
2017-08-25T10:56:35.750Z,67.80
2017-08-25T10:59:03.264Z,65.40
2017-08-25T11:01:30.789Z,67.00
2017-08-25T11:03:58.325Z,68.10
2017-08-25T11:06:25.829Z,68.80
2017-08-25T11:08:53.338Z,64.00
2017-08-25T11:11:20.856Z,63.80
2017-08-25T11:13:48.370Z,61.80
2017-08-25T11:16:15.873Z,61.20
2017-08-25T11:18:43.389Z,63.30
2017-08-25T11:21:10.926Z,62.30
2017-08-25T11:23:38.435Z,65.10
2017-08-25T11:26:06.068Z,64.00
2017-08-25T11:28:33.567Z,63.90
2017-08-25T11:31:01.163Z,63.90
2017-08-25T11:33:28.691Z,64.10
2017-08-25T11:35:56.197Z,64.20
2017-08-25T11:38:23.707Z,65.20
2017-08-25T11:40:51.199Z,62.80
2017-08-25T11:43:18.696Z,57.90
2017-08-25T11:45:46.220Z,55.70
2017-08-25T11:48:13.748Z,54.00
2017-08-25T11:50:41.286Z,50.60
2017-08-25T11:53:08.767Z,49.80
2017-08-25T11:55:36.274Z,49.40
2017-08-25T11:58:03.793Z,47.80
2017-08-25T12:00:31.322Z,50.50
2017-08-25T12:02:58.823Z,52.70
2017-08-25T12:05:26.331Z,52.90
2017-08-25T12:07:53.841Z,53.70
2017-08-25T12:10:21.498Z,53.90
2017-08-25T12:12:48.982Z,53.80
2017-08-25T12:15:16.489Z,51.90
2017-08-25T12:17:44.007Z,49.80
2017-08-25T12:20:11.497Z,48.10
2017-08-25T12:22:39.006Z,47.10
2017-08-25T12:25:06.502Z,48.40
2017-08-25T12:27:33.999Z,49.50
2017-08-25T12:30:01.517Z,50.10
2017-08-25T12:32:29.025Z,51.60
2017-08-25T12:34:56.541Z,52.40
2017-08-25T12:37:24.077Z,53.30
2017-08-25T12:39:51.574Z,52.70
2017-08-25T12:42:19.080Z,53.50
2017-08-25T12:44:46.643Z,54.20
2017-08-25T12:47:14.356Z,52.80
2017-08-25T12:49:41.921Z,51.70
2017-08-25T12:52:09.492Z,51.90
2017-08-25T12:54:36.986Z,51.00
2017-08-25T12:57:04.504Z,51.50
2017-08-25T12:59:32.127Z,52.50
2017-08-25T13:01:59.711Z,51.70
2017-08-25T13:04:27.217Z,52.50
2017-08-25T13:06:54.747Z,50.70
2017-08-25T13:09:22.289Z,50.30
2017-08-25T13:11:49.799Z,50.40
2017-08-25T13:14:17.289Z,52.20
2017-08-25T13:16:45.073Z,51.90
2017-08-25T13:19:12.573Z,52.10
2017-08-25T13:21:40.104Z,52.30
2017-08-25T13:24:07.615Z,52.40
2017-08-25T13:26:35.133Z,52.20
2017-08-25T13:29:02.617Z,52.60
2017-08-25T13:31:30.197Z,52.50
2017-08-25T13:33:57.719Z,51.20
2017-08-25T13:36:25.198Z,52.10
2017-08-25T13:38:52.706Z,51.90
2017-08-25T13:41:20.211Z,52.30
2017-08-25T13:43:47.709Z,51.80
2017-08-25T13:46:15.201Z,50.50
2017-08-25T13:48:42.700Z,50.10
2017-08-25T13:51:10.222Z,49.30
2017-08-25T13:53:37.711Z,48.30
2017-08-25T13:56:05.214Z,49.20
2017-08-25T13:58:32.701Z,49.60
2017-08-25T14:01:00.205Z,49.70
2017-08-25T14:03:27.782Z,50.00
2017-08-25T14:05:55.288Z,50.60
2017-08-25T14:08:22.791Z,51.20
2017-08-25T14:10:50.299Z,52.00
2017-08-25T14:13:17.823Z,51.50
2017-08-25T14:15:45.521Z,51.10
2017-08-25T14:18:13.167Z,51.80
2017-08-25T14:20:40.928Z,50.30
2017-08-25T14:23:08.571Z,49.80
2017-08-25T14:25:36.078Z,50.10
2017-08-25T14:28:03.569Z,47.40
2017-08-25T14:30:31.092Z,47.60
2017-08-25T14:32:58.584Z,46.00
2017-08-25T14:35:26.100Z,46.00
2017-08-25T14:37:53.589Z,46.70
2017-08-25T14:40:21.198Z,46.50
2017-08-25T14:42:48.714Z,47.20
2017-08-25T14:45:16.220Z,48.00
2017-08-25T14:47:43.732Z,46.10
2017-08-25T14:50:11.228Z,45.30
2017-08-25T14:52:38.933Z,47.00
2017-08-25T14:55:06.515Z,46.40
2017-08-25T14:57:34.011Z,46.70
2017-08-25T15:00:01.565Z,47.20
2017-08-25T15:02:29.113Z,48.30
2017-08-25T15:04:56.629Z,48.00
2017-08-25T15:07:24.208Z,48.50
2017-08-25T15:09:51.751Z,47.60
2017-08-25T15:12:19.247Z,45.80
2017-08-25T15:14:46.829Z,46.30
2017-08-25T15:17:14.374Z,47.10
2017-08-25T15:19:41.920Z,47.00
2017-08-25T15:22:09.446Z,48.20
2017-08-25T15:24:37.181Z,48.00
2017-08-25T15:27:04.841Z,47.70
2017-08-25T15:29:32.406Z,46.90
2017-08-25T15:31:59.911Z,47.30
2017-08-25T15:34:27.433Z,46.80
2017-08-25T15:36:54.926Z,45.60
2017-08-25T15:39:22.423Z,45.80
2017-08-25T15:41:49.949Z,45.50
2017-08-25T15:44:17.545Z,47.10
2017-08-25T15:46:45.063Z,46.80
2017-08-25T15:49:12.752Z,47.00
2017-08-25T15:51:40.264Z,45.50
2017-08-25T15:54:07.797Z,46.40
2017-08-25T15:56:35.337Z,47.00
2017-08-25T15:59:02.887Z,46.40
2017-08-25T16:01:30.371Z,46.30
2017-08-25T16:03:57.862Z,46.90
2017-08-25T16:06:25.448Z,46.10
2017-08-25T16:08:52.960Z,45.80
2017-08-25T16:11:20.577Z,46.30
2017-08-25T16:13:48.085Z,46.40
2017-08-25T16:16:15.711Z,45.00
2017-08-25T16:18:43.205Z,44.90
2017-08-25T16:21:10.861Z,45.40
2017-08-25T16:23:38.495Z,46.60
2017-08-25T16:26:05.969Z,47.20
2017-08-25T16:28:33.485Z,46.70
2017-08-25T16:31:00.999Z,46.20
2017-08-25T16:33:28.498Z,47.20
2017-08-25T16:35:55.991Z,47.60
2017-08-25T16:38:23.692Z,48.10
2017-08-25T16:40:51.461Z,47.40
2017-08-25T16:43:19.006Z,46.60
2017-08-25T16:45:46.892Z,46.80
2017-08-25T16:48:14.450Z,47.60
2017-08-25T16:50:42.205Z,48.10
2017-08-25T16:53:09.817Z,47.70
2017-08-25T16:55:37.420Z,47.70
2017-08-25T16:58:04.939Z,48.00
2017-08-25T17:00:32.437Z,48.30
2017-08-25T17:02:59.957Z,48.80
2017-08-25T17:05:27.454Z,49.60
2017-08-25T17:07:54.963Z,49.40
2017-08-25T17:10:22.462Z,49.50
2017-08-25T17:12:50.062Z,49.80
2017-08-25T17:15:17.586Z,50.00
2017-08-25T17:17:45.211Z,50.30
2017-08-25T17:20:12.777Z,50.60
2017-08-25T17:22:40.350Z,51.20
2017-08-25T17:25:08.145Z,50.50
2017-08-25T17:27:35.655Z,50.50
2017-08-25T17:30:03.361Z,50.80
2017-08-25T17:32:31.178Z,51.60
2017-08-25T17:34:58.777Z,51.10
2017-08-25T17:37:26.269Z,51.80
2017-08-25T17:39:53.874Z,52.00
2017-08-25T17:42:21.460Z,52.30
2017-08-25T17:44:48.971Z,52.80
2017-08-25T17:47:16.482Z,53.30
2017-08-25T17:49:43.965Z,53.70
2017-08-25T17:52:11.511Z,53.70
2017-08-25T17:54:39.076Z,54.00
2017-08-25T17:57:06.574Z,54.90
2017-08-25T17:59:34.074Z,55.30
2017-08-25T18:02:01.573Z,54.90
2017-08-25T18:04:29.077Z,55.50
2017-08-25T18:06:56.600Z,56.10
2017-08-25T18:09:24.233Z,56.70
2017-08-25T18:11:51.898Z,57.20
2017-08-25T18:14:19.570Z,57.30
2017-08-25T18:16:47.074Z,57.40
2017-08-25T18:19:14.684Z,57.80
2017-08-25T18:21:42.192Z,58.20
2017-08-25T18:24:09.704Z,58.60
2017-08-25T18:26:37.219Z,59.60
2017-08-25T18:29:04.827Z,59.30
2017-08-25T18:31:32.329Z,59.80
2017-08-25T18:33:59.821Z,60.60
2017-08-25T18:36:27.512Z,61.40
2017-08-25T18:38:55.007Z,61.90
2017-08-25T18:41:22.572Z,62.50
2017-08-25T18:43:50.070Z,63.00
2017-08-25T18:46:17.753Z,63.30
2017-08-25T18:48:45.307Z,63.70
2017-08-25T18:51:12.916Z,63.90
2017-08-25T18:53:45.105Z,64.20
2017-08-25T18:56:13.099Z,64.70
2017-08-25T18:58:40.789Z,64.80
2017-08-25T19:01:08.362Z,64.80
2017-08-25T19:03:37.736Z,65.00
2017-08-25T19:06:05.240Z,65.10
2017-08-25T19:08:32.842Z,65.80
2017-08-25T19:11:01.544Z,66.10
2017-08-25T19:13:29.213Z,66.50
2017-08-25T19:15:56.765Z,66.80
2017-08-25T19:18:24.327Z,67.00
2017-08-25T19:20:51.813Z,67.10
2017-08-25T19:23:22.551Z,67.60
2017-08-25T19:25:50.042Z,68.00
2017-08-25T19:28:18.686Z,68.60
2017-08-25T19:30:46.925Z,68.60
2017-08-25T19:33:14.441Z,69.00
2017-08-25T19:35:41.945Z,69.20
2017-08-25T19:38:09.520Z,69.80
2017-08-25T19:40:37.424Z,70.00
2017-08-25T19:43:04.976Z,70.40
2017-08-25T19:45:32.511Z,70.50
2017-08-25T19:48:00.174Z,70.90
2017-08-25T19:50:27.741Z,70.80
2017-08-25T19:52:55.231Z,70.80
2017-08-25T19:55:22.747Z,71.00
2017-08-25T19:57:50.424Z,71.00
2017-08-25T20:00:17.921Z,71.50
2017-08-25T20:02:46.740Z,72.00
2017-08-25T20:05:14.274Z,72.50
2017-08-25T20:07:41.855Z,72.90
2017-08-25T20:10:10.619Z,73.20
2017-08-25T20:12:38.118Z,73.50
2017-08-25T20:15:05.681Z,73.90
2017-08-25T20:17:33.242Z,74.10
2017-08-25T20:20:01.060Z,74.50
2017-08-25T20:22:28.567Z,74.90
2017-08-25T20:24:56.777Z,76.30
2017-08-25T20:27:27.187Z,75.90
2017-08-25T20:29:54.692Z,76.00
2017-08-25T20:32:22.260Z,76.20
2017-08-25T20:34:49.766Z,76.30
2017-08-25T20:37:17.317Z,77.50
2017-08-25T20:39:44.835Z,76.80
2017-08-25T20:42:12.340Z,76.90
2017-08-25T20:44:39.860Z,77.10
2017-08-25T20:47:07.414Z,77.30
2017-08-25T20:49:34.930Z,78.00
2017-08-25T20:52:02.451Z,77.90
2017-08-25T20:54:29.963Z,78.00
2017-08-25T20:56:57.473Z,78.50
2017-08-25T20:59:25.881Z,78.60
2017-08-25T21:01:53.400Z,78.90
2017-08-25T21:04:20.920Z,78.90
2017-08-25T21:06:48.439Z,78.90
2017-08-25T21:09:15.941Z,78.90
2017-08-25T21:11:43.424Z,79.10
2017-08-25T21:14:11.018Z,79.10
2017-08-25T21:16:38.635Z,79.60
2017-08-25T21:19:06.245Z,79.70
2017-08-25T21:21:33.804Z,80.10
2017-08-25T21:24:01.455Z,80.30
2017-08-25T21:26:29.019Z,80.30
2017-08-25T21:28:56.541Z,80.80
2017-08-25T21:31:24.081Z,80.90
2017-08-25T21:33:53.094Z,81.50
2017-08-25T21:36:20.610Z,81.50
2017-08-25T21:38:48.131Z,81.90
2017-08-25T21:41:16.197Z,81.80
2017-08-25T21:43:43.701Z,82.20
2017-08-25T21:46:11.196Z,82.50
2017-08-25T21:48:39.653Z,82.10
2017-08-25T21:51:07.706Z,82.40
2017-08-25T21:53:36.508Z,82.90
2017-08-25T21:56:05.742Z,83.00
2017-08-25T21:58:33.317Z,83.20
2017-08-25T22:01:00.887Z,83.00
2017-08-25T22:03:28.435Z,83.20
2017-08-25T22:05:55.939Z,83.20
2017-08-25T22:08:23.570Z,83.70
2017-08-25T22:10:51.074Z,83.60
2017-08-25T22:13:18.560Z,83.70
2017-08-25T22:15:46.229Z,84.00
2017-08-25T22:18:13.758Z,84.20
2017-08-25T22:20:41.280Z,84.40
2017-08-25T22:23:08.803Z,84.40
2017-08-25T22:25:37.300Z,84.50
2017-08-25T22:28:04.796Z,84.30
2017-08-25T22:30:32.309Z,84.70
2017-08-25T22:32:59.846Z,84.70
2017-08-25T22:35:27.349Z,84.80
2017-08-25T22:37:54.843Z,85.10
2017-08-25T22:40:22.362Z,85.30
2017-08-25T22:42:49.893Z,85.50
2017-08-25T22:45:17.431Z,86.00
2017-08-25T22:47:44.950Z,86.00
2017-08-25T22:50:12.454Z,86.20
2017-08-25T22:52:39.944Z,86.70
2017-08-25T22:55:07.461Z,86.80
2017-08-25T22:57:34.995Z,87.10
2017-08-25T23:00:02.510Z,87.60
2017-08-25T23:02:30.005Z,87.60
2017-08-25T23:04:57.669Z,87.70
2017-08-25T23:07:25.175Z,88.10
2017-08-25T23:09:52.677Z,88.00
2017-08-25T23:12:20.193Z,88.00
2017-08-25T23:14:47.711Z,88.10
2017-08-25T23:17:15.231Z,88.20
2017-08-25T23:19:42.740Z,88.30
2017-08-25T23:22:10.275Z,88.80
2017-08-25T23:24:37.800Z,89.10
2017-08-25T23:27:05.320Z,89.20
2017-08-25T23:29:33.079Z,89.40
2017-08-25T23:32:00.629Z,89.50
2017-08-25T23:34:28.147Z,89.90
2017-08-25T23:36:55.851Z,89.90
2017-08-25T23:39:23.532Z,90.00
2017-08-25T23:41:51.056Z,89.80
2017-08-25T23:44:18.635Z,90.10
2017-08-25T23:46:46.155Z,90.10
2017-08-25T23:49:13.663Z,90.10
2017-08-25T23:51:41.264Z,90.30
2017-08-25T23:54:08.874Z,90.40
2017-08-25T23:56:36.385Z,90.50
2017-08-25T23:59:03.997Z,90.50
